Wetterdaten: Woche 27.03.06 - 02.04.06 (KW13)
Datum Zeit Temperatur Luftfeuchte Luftdruck Niederschlag Wind Richtung Sonne Solar Taupunkt Windchill
27.03.2006 00:00 10.9 C 84 % 1013.8 hPa 0.0 l/m 0.0 km/h (0 Bft) N 0.00 h 0 W/m 8.3 C 10.9 C
27.03.2006 01:00 10.1 C 83 % 1013.0 hPa 0.0 l/m 0.0 km/h (0 Bft) N 0.00 h 0 W/m 7.3 C 10.1 C
27.03.2006 02:00 9.6 C 85 % 1013.1 hPa 0.0 l/m 0.8 km/h (0 Bft) NO 0.00 h 0 W/m 7.1 C 9.6 C
27.03.2006 03:00 8.8 C 88 % 1013.1 hPa 0.0 l/m 1.0 km/h (0 Bft) O-SO 0.00 h 0 W/m 6.8 C 8.8 C
27.03.2006 04:00 7.8 C 91 % 1012.3 hPa 0.0 l/m 1.6 km/h (1 Bft) O-SO 0.00 h 0 W/m 6.4 C 7.7 C
27.03.2006 05:00 7.0 C 96 % 1012.4 hPa 0.0 l/m 0.2 km/h (0 Bft) O-SO 0.00 h 0 W/m 6.3 C 7.0 C
27.03.2006 06:00 6.5 C 96 % 1012.5 hPa 0.0 l/m 0.0 km/h (0 Bft) N 0.00 h 0 W/m 5.9 C 6.5 C
27.03.2006 07:00 6.5 C 98 % 1012.5 hPa 0.0 l/m 0.0 km/h (0 Bft) N 0.00 h 22 W/m 6.2 C 6.5 C
27.03.2006 08:00 7.4 C 100 % 1012.3 hPa 0.0 l/m 0.0 km/h (0 Bft) N 0.00 h 52 W/m 7.4 C 7.4 C
27.03.2006 09:00 8.7 C 91 % 1012.1 hPa 0.0 l/m 0.0 km/h (0 Bft) N 0.60 h 282 W/m 7.4 C 8.7 C
27.03.2006 10:00 12.7 C 71 % 1011.6 hPa 0.0 l/m 0.4 km/h (0 Bft) O 1.00 h 502 W/m 7.5 C 12.7 C
27.03.2006 11:00 15.9 C 58 % 1011.2 hPa 0.0 l/m 1.3 km/h (1 Bft) NW 0.93 h 531 W/m 7.7 C 15.9 C
27.03.2006 12:00 19.0 C 49 % 1010.6 hPa 0.0 l/m 0.5 km/h (0 Bft) NW 0.63 h 529 W/m 7.9 C 19.0 C
27.03.2006 13:00 21.9 C 37 % 1009.4 hPa 0.0 l/m 19.2 km/h (3 Bft) NW 0.93 h 699 W/m 6.5 C 21.9 C
27.03.2006 14:00 22.7 C 35 % 1009.0 hPa 0.0 l/m 14.3 km/h (3 Bft) NW 0.90 h 605 W/m 6.4 C 22.7 C
27.03.2006 15:00 23.4 C 32 % 1008.2 hPa 0.0 l/m 10.9 km/h (2 Bft) NW 0.83 h 489 W/m 5.8 C 23.4 C
27.03.2006 16:00 22.4 C 35 % 1008.3 hPa 0.0 l/m 16.6 km/h (3 Bft) NW 0.33 h 302 W/m 6.1 C 22.4 C
27.03.2006 17:00 21.1 C 40 % 1008.1 hPa 0.0 l/m 17.5 km/h (3 Bft) NW 0.00 h 146 W/m 6.8 C 21.1 C
27.03.2006 18:00 20.0 C 44 % 1007.5 hPa 0.0 l/m 3.5 km/h (1 Bft) NW 0.00 h 62 W/m 7.3 C 20.0 C
27.03.2006 19:00 18.5 C 45 % 1007.9 hPa 0.0 l/m 10.6 km/h (2 Bft) NW 0.00 h 13 W/m 6.3 C 18.5 C
27.03.2006 20:00 13.4 C 76 % 1012.0 hPa 0.3 l/m 42.8 km/h (6 Bft) NW 0.00 h 0 W/m 9.1 C 13.4 C
27.03.2006 21:00 12.2 C 87 % 1012.6 hPa 0.3 l/m 18.4 km/h (3 Bft) NW 0.00 h 0 W/m 10.2 C 12.2 C
27.03.2006 22:00 11.9 C 93 % 1013.0 hPa 1.0 l/m 10.2 km/h (2 Bft) NW 0.00 h 0 W/m 10.7 C 11.9 C
27.03.2006 23:00 11.5 C 97 % 1012.1 hPa 0.3 l/m 6.1 km/h (2 Bft) SO 0.00 h 0 W/m 11.1 C 11.5 C
28.03.2006 00:00 11.3 C 98 % 1011.8 hPa 0.0 l/m 0.3 km/h (0 Bft) SO 0.00 h 0 W/m 11.0 C 11.3 C
28.03.2006 01:00 11.2 C 98 % 1011.7 hPa 0.3 l/m 0.4 km/h (0 Bft) SO 0.00 h 0 W/m 10.8 C 11.2 C
28.03.2006 02:00 11.2 C 99 % 1010.8 hPa 0.3 l/m 1.3 km/h (1 Bft) S-SO 0.00 h 0 W/m 11.1 C 11.2 C
28.03.2006 03:00 11.1 C 99 % 1010.8 hPa 2.9 l/m 1.3 km/h (1 Bft) W-NW 0.00 h 0 W/m 11.0 C 11.1 C
28.03.2006 04:00 10.6 C 100 % 1010.7 hPa 0.6 l/m 0.6 km/h (0 Bft) S-SO 0.00 h 0 W/m 10.6 C 10.6 C
28.03.2006 05:00 10.1 C 99 % 1009.9 hPa 1.3 l/m 1.3 km/h (1 Bft) S-SO 0.00 h 0 W/m 10.0 C 10.1 C
28.03.2006 06:00 9.8 C 100 % 1009.9 hPa 0.6 l/m 0.5 km/h (0 Bft) S-SO 0.00 h 0 W/m 9.8 C 9.8 C
28.03.2006 07:00 9.5 C 100 % 1010.4 hPa 2.0 l/m 1.1 km/h (1 Bft) S-SO 0.00 h 4 W/m 9.5 C 9.4 C
28.03.2006 08:00 9.1 C 100 % 1010.2 hPa 0.0 l/m 3.7 km/h (1 Bft) S 0.00 h 21 W/m 9.0 C 8.7 C
28.03.2006 09:00 9.0 C 97 % 1010.3 hPa 0.0 l/m 2.5 km/h (1 Bft) S-SW 0.00 h 49 W/m 8.6 C 8.8 C
28.03.2006 10:00 9.1 C 95 % 1010.6 hPa 0.3 l/m 6.5 km/h (2 Bft) SW 0.00 h 91 W/m 8.3 C 8.3 C
28.03.2006 11:00 9.0 C 93 % 1010.4 hPa 0.3 l/m 10.6 km/h (2 Bft) S 0.00 h 157 W/m 8.0 C 7.4 C
28.03.2006 12:00 8.6 C 95 % 1010.1 hPa 1.3 l/m 4.4 km/h (1 Bft) S 0.00 h 109 W/m 7.9 C 8.1 C
28.03.2006 13:00 9.0 C 95 % 1010.0 hPa 0.6 l/m 0.5 km/h (0 Bft) S-SO 0.00 h 177 W/m 8.2 C 9.0 C
28.03.2006 14:00 9.1 C 90 % 1009.2 hPa 0.3 l/m 7.3 km/h (2 Bft) NW 0.00 h 131 W/m 7.6 C 8.1 C
28.03.2006 15:00 9.2 C 82 % 1009.0 hPa 0.0 l/m 9.4 km/h (2 Bft) NW 0.07 h 231 W/m 6.3 C 7.9 C
28.03.2006 16:00 8.7 C 84 % 1009.0 hPa 1.6 l/m 18.4 km/h (3 Bft) NW 0.00 h 81 W/m 6.1 C 6.0 C
28.03.2006 17:00 8.4 C 92 % 1009.1 hPa 0.3 l/m 7.3 km/h (2 Bft) NW 0.00 h 110 W/m 7.1 C 7.3 C
28.03.2006 18:00 8.2 C 89 % 1009.1 hPa 0.0 l/m 11.4 km/h (2 Bft) SW 0.00 h 56 W/m 6.4 C 6.4 C
28.03.2006 19:00 7.8 C 87 % 1009.2 hPa 0.0 l/m 8.8 km/h (2 Bft) SW 0.00 h 15 W/m 5.7 C 6.3 C
28.03.2006 20:00 7.3 C 88 % 1010.3 hPa 0.0 l/m 16.0 km/h (3 Bft) W-NW 0.00 h 0 W/m 5.5 C 4.6 C
28.03.2006 21:00 6.8 C 88 % 1010.5 hPa 0.0 l/m 9.1 km/h (2 Bft) S 0.00 h 0 W/m 4.9 C 5.0 C
28.03.2006 22:00 6.5 C 83 % 1011.2 hPa 0.3 l/m 13.2 km/h (3 Bft) S-SW 0.00 h 0 W/m 3.8 C 4.0 C
28.03.2006 23:00 6.1 C 92 % 1011.5 hPa 0.0 l/m 8.6 km/h (2 Bft) S-SW 0.00 h 0 W/m 4.9 C 4.4 C
29.03.2006 00:00 6.0 C 91 % 1011.9 hPa 1.3 l/m 5.9 km/h (2 Bft) S-SW 0.00 h 0 W/m 4.7 C 4.8 C
29.03.2006 01:00 5.1 C 96 % 1012.5 hPa 3.3 l/m 19.4 km/h (3 Bft) NW 0.00 h 0 W/m 4.5 C 1.9 C
29.03.2006 02:00 4.4 C 96 % 1013.6 hPa 2.3 l/m 18.8 km/h (3 Bft) NW 0.00 h 0 W/m 3.8 C 0.5 C
29.03.2006 03:00 4.2 C 99 % 1012.8 hPa 0.0 l/m 2.7 km/h (1 Bft) SO 0.00 h 0 W/m 4.0 C 3.8 C
29.03.2006 04:00 4.2 C 99 % 1012.8 hPa 0.0 l/m 0.2 km/h (0 Bft) SO 0.00 h 0 W/m 4.2 C 4.2 C
29.03.2006 05:00 4.2 C 100 % 1012.8 hPa 0.0 l/m 0.1 km/h (0 Bft) N 0.00 h 0 W/m 4.2 C 4.2 C
29.03.2006 06:00 4.4 C 100 % 1012.7 hPa 1.0 l/m 0.0 km/h (0 Bft) N 0.00 h 0 W/m 4.4 C 4.4 C
29.03.2006 07:00 4.0 C 100 % 1012.8 hPa 0.0 l/m 0.2 km/h (0 Bft) O-NO 0.00 h 28 W/m 4.0 C 4.0 C
29.03.2006 08:00 5.0 C 100 % 1013.2 hPa 0.6 l/m 0.0 km/h (0 Bft) N 0.27 h 63 W/m 5.0 C 5.0 C
29.03.2006 09:00 5.6 C 99 % 1013.8 hPa 0.3 l/m 1.7 km/h (1 Bft) NW 0.00 h 63 W/m 5.5 C 5.3 C
29.03.2006 10:00 5.8 C 98 % 1014.6 hPa 1.0 l/m 0.1 km/h (0 Bft) NW 0.00 h 90 W/m 5.5 C 5.8 C
29.03.2006 11:00 7.0 C 95 % 1015.4 hPa 0.3 l/m 5.0 km/h (1 Bft) W-NW 0.45 h 371 W/m 6.3 C 6.2 C
29.03.2006 12:00 8.8 C 82 % 1015.3 hPa 0.0 l/m 4.3 km/h (1 Bft) W-NW 0.20 h 362 W/m 5.9 C 8.3 C
29.03.2006 13:00 10.3 C 70 % 1014.0 hPa 0.0 l/m 8.5 km/h (2 Bft) W-NW 0.33 h 428 W/m 5.0 C 9.9 C
29.03.2006 14:00 9.5 C 75 % 1014.6 hPa 1.0 l/m 13.6 km/h (3 Bft) N-NW 0.33 h 371 W/m 5.2 C 8.4 C
29.03.2006 15:00 9.7 C 76 % 1015.0 hPa 0.0 l/m 13.7 km/h (3 Bft) NW 0.37 h 343 W/m 5.7 C 8.1 C
29.03.2006 16:00 10.2 C 77 % 1015.2 hPa 0.3 l/m 6.2 km/h (2 Bft) NW 0.53 h 380 W/m 6.3 C 9.9 C
29.03.2006 17:00 10.0 C 76 % 1015.8 hPa 0.0 l/m 6.6 km/h (2 Bft) W-NW 0.07 h 141 W/m 6.0 C 9.8 C
29.03.2006 18:00 9.2 C 84 % 1016.2 hPa 0.0 l/m 1.4 km/h (1 Bft) S-SO 0.07 h 78 W/m 6.6 C 9.1 C
29.03.2006 19:00 8.5 C 92 % 1016.3 hPa 0.3 l/m 6.4 km/h (2 Bft) S-SO 0.00 h 21 W/m 7.2 C 7.5 C
29.03.2006 20:00 8.1 C 95 % 1016.4 hPa 0.0 l/m 1.9 km/h (1 Bft) SO 0.00 h 0 W/m 7.4 C 7.8 C
29.03.2006 21:00 7.9 C 95 % 1017.2 hPa 0.0 l/m 2.0 km/h (1 Bft) SO 0.00 h 0 W/m 7.2 C 7.7 C
29.03.2006 22:00 7.0 C 98 % 1017.6 hPa 0.0 l/m 1.7 km/h (1 Bft) SO 0.00 h 0 W/m 6.7 C 6.8 C
29.03.2006 23:00 5.7 C 99 % 1017.8 hPa 0.0 l/m 2.1 km/h (1 Bft) SO 0.00 h 0 W/m 5.6 C 5.4 C
30.03.2006 00:00 4.2 C 100 % 1018.0 hPa 0.0 l/m 0.2 km/h (0 Bft) SO 0.00 h 0 W/m 4.2 C 4.2 C
30.03.2006 01:00 3.5 C 100 % 1018.1 hPa 0.0 l/m 0.2 km/h (0 Bft) SO 0.00 h 0 W/m 3.5 C 3.5 C
30.03.2006 02:00 3.1 C 100 % 1018.1 hPa 0.0 l/m 0.0 km/h (0 Bft) N 0.00 h 0 W/m 3.1 C 3.1 C
30.03.2006 03:00 3.1 C 100 % 1017.6 hPa 0.0 l/m 0.0 km/h (0 Bft) N 0.00 h 0 W/m 3.1 C 3.1 C
30.03.2006 04:00 3.4 C 100 % 1016.7 hPa 0.0 l/m 0.0 km/h (0 Bft) N 0.00 h 0 W/m 3.4 C 3.4 C
30.03.2006 05:00 3.6 C 100 % 1016.0 hPa 0.0 l/m 0.0 km/h (0 Bft) N 0.00 h 0 W/m 3.6 C 3.6 C
30.03.2006 06:00 3.9 C 100 % 1015.9 hPa 0.0 l/m 0.0 km/h (0 Bft) N 0.00 h 0 W/m 3.9 C 3.9 C
30.03.2006 07:00 4.7 C 100 % 1015.8 hPa 0.0 l/m 0.6 km/h (0 Bft) O-SO 0.00 h 7 W/m 4.7 C 4.7 C
30.03.2006 08:00 6.0 C 100 % 1015.6 hPa 0.3 l/m 3.1 km/h (1 Bft) SO 0.00 h 23 W/m 6.0 C 5.6 C
30.03.2006 09:00 6.6 C 100 % 1015.5 hPa 1.0 l/m 13.4 km/h (3 Bft) S-SO 0.00 h 50 W/m 6.6 C 4.2 C
30.03.2006 10:00 7.3 C 94 % 1014.4 hPa 1.0 l/m 18.4 km/h (3 Bft) S-SO 0.00 h 98 W/m 6.4 C 4.3 C
30.03.2006 11:00 7.9 C 93 % 1014.3 hPa 1.0 l/m 9.6 km/h (2 Bft) S 0.00 h 120 W/m 6.8 C 6.4 C
30.03.2006 12:00 8.5 C 94 % 1014.3 hPa 1.6 l/m 15.8 km/h (3 Bft) S-SO 0.00 h 124 W/m 7.6 C 6.1 C
30.03.2006 13:00 9.3 C 94 % 1014.1 hPa 1.6 l/m 9.5 km/h (2 Bft) S 0.00 h 146 W/m 8.4 C 8.0 C
30.03.2006 14:00 10.2 C 93 % 1014.0 hPa 1.0 l/m 11.9 km/h (2 Bft) S 0.00 h 161 W/m 9.0 C 9.7 C
30.03.2006 15:00 10.6 C 92 % 1014.0 hPa 0.6 l/m 7.8 km/h (2 Bft) SW 0.03 h 190 W/m 9.5 C 10.6 C
30.03.2006 16:00 10.8 C 90 % 1013.9 hPa 0.3 l/m 11.9 km/h (2 Bft) S 0.00 h 133 W/m 9.3 C 10.8 C
30.03.2006 17:00 11.2 C 88 % 1013.2 hPa 0.0 l/m 12.6 km/h (3 Bft) S 0.00 h 97 W/m 9.2 C 11.2 C
30.03.2006 18:00 11.4 C 84 % 1012.8 hPa 0.0 l/m 17.6 km/h (3 Bft) S-SO 0.00 h 32 W/m 8.8 C 11.4 C
30.03.2006 19:00 11.5 C 85 % 1012.6 hPa 0.0 l/m 10.8 km/h (2 Bft) S 0.00 h 16 W/m 9.1 C 11.5 C
30.03.2006 20:00 11.2 C 89 % 1012.0 hPa 0.0 l/m 13.4 km/h (3 Bft) S-SO 0.00 h 0 W/m 9.5 C 11.2 C
30.03.2006 21:00 10.7 C 94 % 1012.5 hPa 1.0 l/m 7.8 km/h (2 Bft) S-SO 0.00 h 0 W/m 9.7 C 10.7 C
30.03.2006 22:00 10.8 C 97 % 1011.9 hPa 1.0 l/m 13.0 km/h (3 Bft) S-SW 0.00 h 0 W/m 10.3 C 10.8 C
30.03.2006 23:00 10.6 C 98 % 1011.9 hPa 3.3 l/m 11.1 km/h (2 Bft) S-SO 0.00 h 0 W/m 10.3 C 10.6 C
31.03.2006 00:00 10.6 C 99 % 1011.9 hPa 1.0 l/m 10.8 km/h (2 Bft) S 0.00 h 0 W/m 10.3 C 10.6 C
31.03.2006 01:00 10.7 C 99 % 1012.8 hPa 1.0 l/m 11.6 km/h (2 Bft) S-SO 0.00 h 0 W/m 10.6 C 10.7 C
31.03.2006 02:00 10.9 C 100 % 1011.9 hPa 0.6 l/m 14.3 km/h (3 Bft) S-SO 0.00 h 0 W/m 10.9 C 10.9 C
31.03.2006 03:00 10.9 C 100 % 1012.9 hPa 0.6 l/m 5.2 km/h (1 Bft) W-SW 0.00 h 0 W/m 10.9 C 10.9 C
31.03.2006 04:00 10.9 C 100 % 1012.2 hPa 0.3 l/m 5.2 km/h (1 Bft) S-SO 0.00 h 0 W/m 10.9 C 10.9 C
31.03.2006 05:00 10.8 C 100 % 1012.9 hPa 1.3 l/m 5.1 km/h (1 Bft) W-SW 0.00 h 0 W/m 10.8 C 10.8 C
31.03.2006 06:00 10.7 C 100 % 1013.9 hPa 0.6 l/m 3.8 km/h (1 Bft) S 0.00 h 0 W/m 10.7 C 10.7 C
31.03.2006 07:00 10.3 C 99 % 1014.6 hPa 1.3 l/m 22.4 km/h (4 Bft) NW 0.00 h 11 W/m 10.0 C 10.3 C
31.03.2006 08:00 10.2 C 91 % 1015.1 hPa 0.0 l/m 3.2 km/h (1 Bft) S-SO 0.13 h 111 W/m 8.7 C 10.0 C
31.03.2006 09:00 11.6 C 84 % 1015.4 hPa 0.3 l/m 6.6 km/h (2 Bft) W-NW 0.33 h 229 W/m 9.1 C 11.6 C
31.03.2006 10:00 13.2 C 62 % 1015.7 hPa 0.0 l/m 27.4 km/h (4 Bft) NW 0.37 h 309 W/m 6.0 C 13.2 C
31.03.2006 11:00 14.7 C 49 % 1015.5 hPa 0.0 l/m 35.3 km/h (5 Bft) NW 0.90 h 637 W/m 4.2 C 14.7 C
31.03.2006 12:00 16.0 C 46 % 1015.3 hPa 0.0 l/m 39.6 km/h (6 Bft) NW 1.00 h 786 W/m 4.4 C 16.0 C
31.03.2006 13:00 16.3 C 45 % 1015.3 hPa 0.0 l/m 37.7 km/h (5 Bft) NW 0.87 h 710 W/m 4.2 C 16.3 C
31.03.2006 14:00 17.1 C 41 % 1015.2 hPa 0.0 l/m 36.9 km/h (5 Bft) NW 1.00 h 724 W/m 3.9 C 17.1 C
31.03.2006 15:00 17.6 C 37 % 1015.1 hPa 0.0 l/m 34.8 km/h (5 Bft) NW 0.93 h 637 W/m 2.7 C 17.6 C
31.03.2006 16:00 17.5 C 37 % 1015.1 hPa 0.0 l/m 29.8 km/h (5 Bft) NW 0.40 h 320 W/m 2.5 C 17.5 C
31.03.2006 17:00 17.3 C 37 % 1014.8 hPa 0.0 l/m 32.1 km/h (5 Bft) NW 0.70 h 318 W/m 2.5 C 17.3 C
31.03.2006 18:00 16.9 C 40 % 1014.2 hPa 0.0 l/m 31.3 km/h (5 Bft) NW 1.00 h 252 W/m 3.2 C 16.9 C
31.03.2006 19:00 15.3 C 45 % 1015.3 hPa 0.0 l/m 20.4 km/h (4 Bft) NW 0.73 h 76 W/m 3.3 C 15.3 C
31.03.2006 20:00 13.3 C 54 % 1015.7 hPa 0.0 l/m 12.4 km/h (3 Bft) NW 0.00 h 0 W/m 4.2 C 13.3 C
31.03.2006 21:00 12.0 C 61 % 1016.3 hPa 0.0 l/m 5.5 km/h (1 Bft) NW 0.00 h 0 W/m 4.6 C 12.0 C
31.03.2006 22:00 10.8 C 66 % 1017.1 hPa 0.0 l/m 3.0 km/h (1 Bft) W-NW 0.00 h 0 W/m 4.7 C 10.8 C
31.03.2006 23:00 9.1 C 74 % 1017.3 hPa 0.0 l/m 2.0 km/h (1 Bft) S-SO 0.00 h 0 W/m 4.8 C 9.1 C
01.04.2006 00:00 7.1 C 85 % 1017.6 hPa 0.0 l/m 0.3 km/h (0 Bft) S-SO 0.00 h 0 W/m 4.7 C 7.1 C
01.04.2006 01:00 6.3 C 91 % 1017.7 hPa 0.0 l/m 0.0 km/h (0 Bft) N 0.00 h 0 W/m 5.0 C 6.3 C
01.04.2006 02:00 5.5 C 95 % 1017.8 hPa 0.0 l/m 0.0 km/h (0 Bft) N 0.00 h 0 W/m 4.7 C 5.5 C
01.04.2006 03:00 5.1 C 98 % 1017.8 hPa 0.0 l/m 0.1 km/h (0 Bft) S-SO 0.00 h 0 W/m 4.8 C 5.1 C
01.04.2006 04:00 5.0 C 99 % 1017.4 hPa 0.0 l/m 0.0 km/h (0 Bft) N 0.00 h 0 W/m 4.8 C 5.0 C
01.04.2006 05:00 4.3 C 99 % 1016.9 hPa 0.0 l/m 0.0 km/h (0 Bft) N 0.00 h 0 W/m 4.2 C 4.3 C
01.04.2006 06:00 4.4 C 100 % 1016.9 hPa 0.0 l/m 0.0 km/h (0 Bft) N 0.00 h 0 W/m 4.3 C 4.4 C
01.04.2006 07:00 4.2 C 100 % 1016.9 hPa 0.0 l/m 0.0 km/h (0 Bft) N 0.07 h 29 W/m 4.1 C 4.2 C
01.04.2006 08:00 5.1 C 99 % 1016.8 hPa 0.0 l/m 0.0 km/h (0 Bft) N 0.30 h 128 W/m 4.9 C 5.1 C
01.04.2006 09:00 6.7 C 90 % 1016.6 hPa 0.0 l/m 0.0 km/h (0 Bft) N 0.53 h 300 W/m 5.1 C 6.7 C
01.04.2006 10:00 9.8 C 72 % 1016.2 hPa 0.0 l/m 0.1 km/h (0 Bft) N 1.02 h 503 W/m 5.0 C 9.8 C
01.04.2006 11:00 13.9 C 57 % 1015.3 hPa 0.0 l/m 4.5 km/h (1 Bft) S-SO 1.00 h 554 W/m 5.5 C 13.9 C
01.04.2006 12:00 16.3 C 47 % 1014.2 hPa 0.0 l/m 5.8 km/h (2 Bft) SO 1.00 h 525 W/m 5.1 C 16.3 C
01.04.2006 13:00 17.9 C 42 % 1013.4 hPa 0.0 l/m 4.0 km/h (1 Bft) S 0.73 h 536 W/m 5.0 C 17.9 C
01.04.2006 14:00 19.6 C 41 % 1012.5 hPa 0.0 l/m 11.2 km/h (2 Bft) S 0.90 h 663 W/m 5.9 C 19.6 C
01.04.2006 15:00 19.4 C 37 % 1011.8 hPa 0.0 l/m 13.3 km/h (3 Bft) W-NW 0.43 h 376 W/m 4.1 C 19.4 C
01.04.2006 16:00 13.8 C 60 % 1013.0 hPa 0.0 l/m 21.9 km/h (4 Bft) NW 0.00 h 46 W/m 5.8 C 13.8 C
01.04.2006 17:00 12.6 C 73 % 1014.2 hPa 0.0 l/m 6.7 km/h (2 Bft) NW 0.03 h 128 W/m 7.9 C 12.6 C
01.04.2006 18:00 12.5 C 71 % 1014.8 hPa 0.0 l/m 14.6 km/h (3 Bft) NW 0.00 h 34 W/m 7.3 C 12.5 C
01.04.2006 19:00 11.2 C 80 % 1014.9 hPa 0.0 l/m 2.6 km/h (1 Bft) NW 0.07 h 27 W/m 7.8 C 11.2 C
01.04.2006 20:00 10.7 C 85 % 1015.4 hPa 0.0 l/m 0.0 km/h (0 Bft) N 0.00 h 0 W/m 8.2 C 10.7 C
01.04.2006 21:00 9.4 C 93 % 1016.2 hPa 0.0 l/m 0.1 km/h (0 Bft) N 0.00 h 0 W/m 8.3 C 9.4 C
01.04.2006 22:00 8.9 C 95 % 1016.8 hPa 0.0 l/m 0.0 km/h (0 Bft) N 0.00 h 0 W/m 8.3 C 8.9 C
01.04.2006 23:00 8.6 C 97 % 1017.4 hPa 0.0 l/m 0.2 km/h (0 Bft) S-SO 0.00 h 0 W/m 8.1 C 8.6 C
02.04.2006 00:00 8.0 C 99 % 1017.4 hPa 0.0 l/m 1.6 km/h (1 Bft) SO 0.00 h 0 W/m 7.8 C 7.8 C
02.04.2006 01:00 7.1 C 99 % 1017.6 hPa 0.0 l/m 2.0 km/h (1 Bft) SO 0.00 h 0 W/m 7.0 C 6.8 C
02.04.2006 02:00 7.5 C 99 % 1017.5 hPa 0.0 l/m 3.0 km/h (1 Bft) SO 0.00 h 0 W/m 7.3 C 7.0 C
02.04.2006 03:00 7.6 C 99 % 1017.5 hPa 0.0 l/m 0.4 km/h (0 Bft) SO 0.00 h 0 W/m 7.5 C 7.6 C
02.04.2006 04:00 6.8 C 100 % 1017.6 hPa 0.0 l/m 1.2 km/h (1 Bft) NO 0.00 h 0 W/m 6.8 C 6.7 C
02.04.2006 05:00 6.6 C 100 % 1017.6 hPa 0.0 l/m 1.0 km/h (0 Bft) SO 0.00 h 0 W/m 6.6 C 6.4 C
02.04.2006 06:00 6.7 C 100 % 1017.6 hPa 0.0 l/m 0.1 km/h (0 Bft) SO 0.00 h 0 W/m 6.7 C 6.7 C
02.04.2006 07:00 6.9 C 100 % 1017.6 hPa 0.0 l/m 0.8 km/h (0 Bft) SO 0.00 h 24 W/m 6.9 C 6.8 C
02.04.2006 08:00 8.6 C 97 % 1017.4 hPa 0.0 l/m 1.1 km/h (1 Bft) S-SO 0.72 h 212 W/m 8.2 C 8.5 C
02.04.2006 09:00 10.4 C 79 % 1017.0 hPa 0.0 l/m 1.4 km/h (1 Bft) S-SO 0.07 h 186 W/m 6.8 C 10.3 C
02.04.2006 10:00 12.1 C 70 % 1015.8 hPa 0.0 l/m 4.9 km/h (1 Bft) SO 0.63 h 454 W/m 6.8 C 12.1 C
02.04.2006 11:00 14.1 C 60 % 1015.6 hPa 0.0 l/m 7.7 km/h (2 Bft) SO 0.55 h 461 W/m 6.5 C 14.1 C
02.04.2006 12:00 15.2 C 53 % 1015.2 hPa 0.0 l/m 9.9 km/h (2 Bft) NW 0.53 h 558 W/m 5.7 C 15.2 C
02.04.2006 13:00 15.4 C 47 % 1014.4 hPa 0.0 l/m 12.4 km/h (3 Bft) NW 0.07 h 224 W/m 4.3 C 15.4 C
02.04.2006 14:00 15.6 C 47 % 1014.3 hPa 0.0 l/m 18.6 km/h (3 Bft) NW 0.27 h 317 W/m 4.3 C 15.6 C
02.04.2006 15:00 14.4 C 54 % 1014.4 hPa 0.6 l/m 27.2 km/h (4 Bft) NW 0.27 h 284 W/m 4.7 C 14.4 C
02.04.2006 16:00 11.5 C 79 % 1015.9 hPa 0.0 l/m 18.4 km/h (3 Bft) NW 0.00 h 140 W/m 8.0 C 11.5 C
02.04.2006 17:00 12.1 C 76 % 1015.1 hPa 0.0 l/m 8.4 km/h (2 Bft) NW 0.00 h 150 W/m 8.0 C 12.1 C
02.04.2006 18:00 11.7 C 80 % 1014.9 hPa 0.0 l/m 2.5 km/h (1 Bft) S-SO 0.00 h 36 W/m 8.3 C 11.7 C
02.04.2006 19:00 10.8 C 89 % 1015.4 hPa 0.6 l/m 1.8 km/h (1 Bft) W-NW 0.03 h 16 W/m 9.0 C 10.8 C
02.04.2006 20:00 10.5 C 93 % 1016.1 hPa 0.0 l/m 0.9 km/h (0 Bft) S-SO 0.00 h 0 W/m 9.4 C 10.5 C
02.04.2006 21:00 9.8 C 95 % 1016.2 hPa 0.0 l/m 3.9 km/h (1 Bft) SW 0.00 h 0 W/m 9.1 C 9.5 C
02.04.2006 22:00 10.0 C 88 % 1016.1 hPa 0.0 l/m 6.4 km/h (2 Bft) S 0.00 h 0 W/m 8.1 C 9.6 C
02.04.2006 23:00 10.4 C 80 % 1016.1 hPa 0.0 l/m 8.8 km/h (2 Bft) S 0.00 h 0 W/m 7.2 C 10.4 C
Min-Datum _ 30.03.06 27.03.06 27.03.06 - 27.03.06 - - - 02.04.06 29.03.06
_ Min-Zeit 02:33 15:29 17:36 - 00:01 - - - 15:43 01:35
Minimum _ 2.8 C 30 % 1007.4 hPa - 0.0 km/h (0 Bft) - - - 0.3 C -1.4 C
Max-Datum _ 27.03.06 27.03.06 30.03.06 29.03.06 27.03.06 - 29.03.06 29.03.06 28.03.06 27.03.06
_ Max-Zeit 15:01 05:55 02:33 01:35 19:57 - 11:49 13:54 02:13 15:01
Maximum _ 23.8 C 100 % 1018.2 hPa 3.3 l/m 74.4 km/h
NW (8 Bft)
- 0.05 h 1006 W/m 11.3 C 23.8 C
Durchschnitt _ 10.1 C 83 % 1013.9 hPa #49.1 l/m 7.7 km/h (2 Bft) NW #26:28 h 235 W/m 6.8 C 9.8 C
© Kaiko 2006